createdAt,value
2018-06-11T19:52:31.724Z,5.72
2018-06-11T19:54:58.974Z,6.12
2018-06-11T19:57:26.241Z,6.10
2018-06-11T19:59:53.670Z,6.25
2018-06-11T20:02:20.997Z,5.70
2018-06-11T20:04:48.240Z,6.03
2018-06-11T20:07:15.487Z,5.90
2018-06-11T20:09:42.780Z,6.35
2018-06-11T20:12:10.067Z,6.25
2018-06-11T20:14:37.524Z,6.47
2018-06-11T20:17:04.766Z,5.65
2018-06-11T20:19:31.975Z,6.15
2018-06-11T20:21:59.200Z,5.97
2018-06-11T20:24:26.415Z,5.75
2018-06-11T20:26:53.646Z,5.92
2018-06-11T20:29:20.866Z,5.70
2018-06-11T20:31:48.147Z,6.05
2018-06-11T20:34:15.386Z,5.53
2018-06-11T20:36:42.647Z,6.03
2018-06-11T20:39:09.889Z,6.10
2018-06-11T20:41:37.169Z,7.10
2018-06-11T20:44:04.447Z,7.12
2018-06-11T20:46:31.721Z,7.45
2018-06-11T20:48:58.943Z,6.92
2018-06-11T20:51:26.194Z,8.30
2018-06-11T20:53:53.452Z,8.20
2018-06-11T20:56:20.715Z,8.23
2018-06-11T20:58:47.967Z,8.50
2018-06-11T21:01:15.221Z,8.43
2018-06-11T21:03:42.464Z,8.28
2018-06-11T21:06:09.730Z,7.95
2018-06-11T21:08:37.004Z,8.70
2018-06-11T21:11:04.250Z,9.45
2018-06-11T21:13:31.492Z,7.90
2018-06-11T21:15:58.831Z,9.28
2018-06-11T21:18:25.980Z,9.13
2018-06-11T21:20:53.221Z,8.48
2018-06-11T21:23:20.447Z,9.73
2018-06-11T21:25:47.694Z,9.53
2018-06-11T21:28:14.905Z,11.08
2018-06-11T21:30:42.159Z,10.55
2018-06-11T21:33:09.363Z,11.80
2018-06-11T21:35:36.587Z,9.88
2018-06-11T21:38:03.880Z,10.78
2018-06-11T21:40:31.128Z,12.47
2018-06-11T21:42:58.330Z,11.78
2018-06-11T21:45:25.556Z,11.00
2018-06-11T21:47:52.810Z,12.15
2018-06-11T21:50:20.439Z,10.98
2018-06-11T21:52:47.692Z,10.60
2018-06-11T21:55:14.902Z,10.93
2018-06-11T21:57:42.131Z,9.93
2018-06-11T22:00:09.372Z,10.48
2018-06-11T22:02:36.695Z,9.73
2018-06-11T22:05:04.001Z,9.38
2018-06-11T22:07:31.211Z,9.58
2018-06-11T22:09:58.453Z,9.28
2018-06-11T22:12:25.774Z,8.58
2018-06-11T22:14:53.004Z,8.73
2018-06-11T22:17:20.279Z,8.43
2018-06-11T22:19:47.531Z,7.53
2018-06-11T22:22:37.900Z,7.70
2018-06-11T22:25:05.111Z,8.30
2018-06-11T22:27:32.343Z,7.62
2018-06-11T22:29:59.578Z,7.95
2018-06-11T22:32:26.804Z,7.87
2018-06-11T22:34:54.046Z,8.35
2018-06-11T22:37:22.104Z,8.45
2018-06-11T22:39:49.314Z,7.87
2018-06-11T22:42:16.564Z,8.43
2018-06-11T22:44:43.843Z,8.30
2018-06-11T22:47:11.099Z,7.90
2018-06-11T22:49:38.296Z,7.83
2018-06-11T22:52:05.543Z,7.72
2018-06-11T22:54:33.035Z,7.97
2018-06-11T22:57:00.295Z,7.95
2018-06-11T22:59:28.323Z,8.03
2018-06-11T23:01:55.567Z,8.00
2018-06-11T23:04:22.792Z,7.62
2018-06-11T23:06:50.032Z,7.80
2018-06-11T23:09:17.354Z,7.97
2018-06-11T23:11:44.579Z,7.85
2018-06-11T23:14:12.171Z,7.75
2018-06-11T23:16:39.418Z,7.25
2018-06-11T23:19:06.798Z,7.30
2018-06-11T23:21:34.028Z,7.40
2018-06-11T23:24:01.245Z,7.58
2018-06-11T23:26:28.553Z,7.75
2018-06-11T23:28:55.909Z,7.55
2018-06-11T23:31:23.255Z,7.62
2018-06-11T23:33:50.511Z,7.92
2018-06-11T23:36:17.736Z,8.05
2018-06-11T23:38:45.005Z,8.90
2018-06-11T23:41:12.338Z,9.33
2018-06-11T23:43:39.581Z,9.75
2018-06-11T23:46:06.782Z,12.40
2018-06-11T23:48:34.007Z,12.18
2018-06-11T23:51:02.050Z,11.75
2018-06-11T23:53:29.254Z,10.95
2018-06-11T23:55:56.442Z,11.28
2018-06-11T23:58:23.645Z,11.70
